createdAt,value
2018-11-02T00:01:35.132Z,7.28
2018-11-02T00:04:03.760Z,7.05
2018-11-02T00:06:33.732Z,7.07
2018-11-02T00:09:02.388Z,7.00
2018-11-02T00:11:31.032Z,7.07
2018-11-02T00:13:59.647Z,7.17
2018-11-02T00:16:28.336Z,7.13
2018-11-02T00:18:57.014Z,7.22
2018-11-02T00:21:25.666Z,7.16
2018-11-02T00:23:54.360Z,7.26
2018-11-02T00:26:23.012Z,7.26
2018-11-02T00:28:51.717Z,7.22
2018-11-02T00:31:20.358Z,7.17
2018-11-02T00:33:49.030Z,7.18
2018-11-02T00:36:17.726Z,7.25
2018-11-02T00:38:46.364Z,7.29
2018-11-02T00:41:15.168Z,7.34
2018-11-02T00:43:43.803Z,7.27
2018-11-02T00:46:12.568Z,7.31
2018-11-02T00:48:41.725Z,7.33
2018-11-02T00:51:10.335Z,7.32
2018-11-02T00:53:38.973Z,7.31
2018-11-02T00:56:07.643Z,7.33
2018-11-02T00:58:36.968Z,7.31
2018-11-02T01:01:05.633Z,7.26
2018-11-02T01:03:34.804Z,7.30
2018-11-02T01:06:03.851Z,7.22
2018-11-02T01:08:32.772Z,7.27
2018-11-02T01:11:01.439Z,7.28
2018-11-02T01:13:30.057Z,7.27
2018-11-02T01:15:58.721Z,7.42
2018-11-02T01:18:27.342Z,7.17
2018-11-02T01:20:55.941Z,7.27
2018-11-02T01:23:24.556Z,7.22
2018-11-02T01:25:53.209Z,7.20
2018-11-02T01:28:22.053Z,7.16
2018-11-02T01:30:50.738Z,7.09
2018-11-02T01:33:23.672Z,7.19
2018-11-02T01:35:52.313Z,7.24
2018-11-02T01:38:21.119Z,7.32
2018-11-02T01:40:49.996Z,7.31
2018-11-02T01:43:18.660Z,7.43
2018-11-02T01:45:47.340Z,7.43
2018-11-02T01:48:15.976Z,7.46
2018-11-02T01:50:44.581Z,7.55
2018-11-02T01:53:13.439Z,7.50
2018-11-02T01:55:42.064Z,7.53
2018-11-02T01:58:10.774Z,7.55
2018-11-02T02:00:39.468Z,7.71
2018-11-02T02:03:08.121Z,7.72
2018-11-02T02:05:36.754Z,7.70
2018-11-02T02:08:05.695Z,7.75
2018-11-02T02:10:34.333Z,7.74
2018-11-02T02:13:03.270Z,7.81
2018-11-02T02:15:31.892Z,7.85
2018-11-02T02:18:00.705Z,7.88
2018-11-02T02:20:29.596Z,7.91
2018-11-02T02:22:58.513Z,7.86
2018-11-02T02:25:27.254Z,7.91
2018-11-02T02:27:55.916Z,7.90
2018-11-02T02:30:24.557Z,7.88
2018-11-02T02:32:53.238Z,8.01
2018-11-02T02:35:21.888Z,7.99
2018-11-02T02:37:50.549Z,7.98
2018-11-02T02:40:19.149Z,7.97
2018-11-02T02:42:47.798Z,7.98
2018-11-02T02:45:16.403Z,8.03
2018-11-02T02:47:45.102Z,7.99
2018-11-02T02:50:14.476Z,8.02
2018-11-02T02:52:43.912Z,8.04
2018-11-02T02:55:12.563Z,7.94
2018-11-02T02:57:41.200Z,8.03
2018-11-02T03:00:11.843Z,8.01
2018-11-02T03:02:40.612Z,8.03
2018-11-02T03:05:09.803Z,7.96
2018-11-02T03:07:38.759Z,8.00
2018-11-02T03:10:07.755Z,8.05
2018-11-02T03:12:36.663Z,8.01
2018-11-02T03:15:05.762Z,8.03
2018-11-02T03:17:34.663Z,8.15
2018-11-02T03:20:04.257Z,8.07
2018-11-02T03:22:32.955Z,8.12
2018-11-02T03:25:02.755Z,8.09
2018-11-02T03:27:31.524Z,8.07
2018-11-02T03:30:00.234Z,8.18
2018-11-02T03:32:28.913Z,8.24
2018-11-02T03:34:57.601Z,8.26
2018-11-02T03:37:26.237Z,8.31
2018-11-02T03:39:54.852Z,8.24
2018-11-02T03:42:23.512Z,8.16
2018-11-02T03:44:52.147Z,8.08
2018-11-02T03:47:20.800Z,8.11
2018-11-02T03:49:49.420Z,8.08
2018-11-02T03:52:18.020Z,8.08
2018-11-02T03:54:46.668Z,8.03
2018-11-02T03:57:15.326Z,7.99
2018-11-02T03:59:43.980Z,8.03
2018-11-02T04:02:12.610Z,8.00
2018-11-02T04:04:41.277Z,8.02
2018-11-02T04:07:09.949Z,8.01
2018-11-02T04:09:38.583Z,7.93
2018-11-02T04:12:07.544Z,7.81
2018-11-02T04:14:36.177Z,7.73
2018-11-02T04:17:05.122Z,7.74
2018-11-02T04:19:33.759Z,7.67
2018-11-02T04:22:02.421Z,7.60
2018-11-02T04:24:31.055Z,7.53
2018-11-02T04:26:59.780Z,7.53
2018-11-02T04:29:28.435Z,7.42
2018-11-02T04:31:57.031Z,7.45
2018-11-02T04:34:25.713Z,7.49
2018-11-02T04:36:54.459Z,7.45
2018-11-02T04:39:23.080Z,7.38
2018-11-02T04:41:51.725Z,7.39
2018-11-02T04:44:20.341Z,7.37
2018-11-02T04:46:48.952Z,7.37
2018-11-02T04:49:17.596Z,7.25
2018-11-02T04:51:46.254Z,7.22
2018-11-02T04:54:14.924Z,7.15
2018-11-02T04:56:43.621Z,7.10
2018-11-02T04:59:12.299Z,7.13
2018-11-02T05:01:40.908Z,7.17
2018-11-02T05:04:09.561Z,7.19
2018-11-02T05:06:38.223Z,7.10
2018-11-02T05:09:08.031Z,7.09
2018-11-02T05:11:36.947Z,7.02
2018-11-02T05:14:05.891Z,7.03
2018-11-02T05:16:34.672Z,6.98
2018-11-02T05:19:03.292Z,6.98
2018-11-02T05:21:31.962Z,6.93
2018-11-02T05:24:00.600Z,7.03
2018-11-02T05:26:29.288Z,7.00
2018-11-02T05:28:57.965Z,6.97
2018-11-02T05:31:26.629Z,6.93
2018-11-02T05:33:55.290Z,6.89
2018-11-02T05:36:23.921Z,6.82
2018-11-02T05:38:52.643Z,6.82
2018-11-02T05:41:21.239Z,6.81
2018-11-02T05:43:49.898Z,6.74
2018-11-02T05:46:18.530Z,6.74
2018-11-02T05:48:47.199Z,6.70
2018-11-02T05:51:15.839Z,6.84
2018-11-02T05:53:44.469Z,6.71
2018-11-02T05:56:13.107Z,6.81
2018-11-02T05:58:41.757Z,6.82
2018-11-02T06:01:10.431Z,6.73
2018-11-02T06:03:39.072Z,6.65
2018-11-02T06:06:07.762Z,6.78
2018-11-02T06:08:36.419Z,6.84
2018-11-02T06:11:05.768Z,6.82
2018-11-02T06:13:34.903Z,6.88
2018-11-02T06:16:03.530Z,6.94
2018-11-02T06:18:32.237Z,6.93
2018-11-02T06:21:00.941Z,7.08
2018-11-02T06:23:29.597Z,7.11
2018-11-02T06:25:58.257Z,7.16
2018-11-02T06:28:26.926Z,7.16
2018-11-02T06:30:55.542Z,7.19
2018-11-02T06:33:24.204Z,7.23
2018-11-02T06:35:52.869Z,7.26
2018-11-02T06:38:21.592Z,7.34
2018-11-02T06:40:50.282Z,7.46
2018-11-02T06:43:18.996Z,7.46
2018-11-02T06:45:47.632Z,7.54
2018-11-02T06:48:16.316Z,7.57
2018-11-02T06:50:44.988Z,7.68
2018-11-02T06:53:13.614Z,7.77
2018-11-02T06:55:42.257Z,7.77
2018-11-02T06:58:10.909Z,7.85
2018-11-02T07:00:39.572Z,7.88
2018-11-02T07:03:08.177Z,7.90
2018-11-02T07:05:36.843Z,7.94
2018-11-02T07:08:06.243Z,8.02
2018-11-02T07:10:40.857Z,8.06
2018-11-02T07:13:09.572Z,7.90
2018-11-02T07:15:38.261Z,7.84
2018-11-02T07:18:06.882Z,7.97
2018-11-02T07:20:35.492Z,7.87
2018-11-02T07:23:04.502Z,7.97
2018-11-02T07:25:33.177Z,7.84
2018-11-02T07:28:01.801Z,7.85
2018-11-02T07:30:30.484Z,7.96
2018-11-02T07:32:59.128Z,8.00
2018-11-02T07:35:27.949Z,8.12
2018-11-02T07:37:56.544Z,8.19
2018-11-02T07:40:25.511Z,8.09
2018-11-02T07:42:54.161Z,8.21
2018-11-02T07:45:22.848Z,8.28
2018-11-02T07:47:51.612Z,8.34
2018-11-02T07:50:20.206Z,8.43
2018-11-02T07:52:49.749Z,8.45
2018-11-02T07:55:18.524Z,8.48
2018-11-02T07:57:47.165Z,8.57
2018-11-02T08:00:17.080Z,8.63
2018-11-02T08:02:47.439Z,8.63
2018-11-02T08:05:16.676Z,8.73
2018-11-02T08:07:45.566Z,8.83
2018-11-02T08:10:14.417Z,8.97
2018-11-02T08:12:43.088Z,8.98
2018-11-02T08:15:12.745Z,9.01
2018-11-02T08:17:42.023Z,9.10
2018-11-02T08:20:11.949Z,9.19
2018-11-02T08:22:40.721Z,9.32
2018-11-02T08:25:10.373Z,9.32
2018-11-02T08:27:39.325Z,9.36
2018-11-02T08:30:08.728Z,9.41
2018-11-02T08:32:37.520Z,9.53
2018-11-02T08:35:08.105Z,9.57
2018-11-02T08:37:37.240Z,9.61
2018-11-02T08:40:06.775Z,9.69
2018-11-02T08:42:35.417Z,9.70
2018-11-02T08:45:04.060Z,9.81
2018-11-02T08:47:32.718Z,9.91
2018-11-02T08:50:01.340Z,10.01
2018-11-02T08:52:29.993Z,10.07
2018-11-02T08:54:58.604Z,10.23
2018-11-02T08:57:27.415Z,10.34
2018-11-02T08:59:56.053Z,10.51
2018-11-02T09:02:24.686Z,10.65
2018-11-02T09:04:53.348Z,10.77
2018-11-02T09:07:21.930Z,10.85
2018-11-02T09:09:50.576Z,10.90
2018-11-02T09:12:19.347Z,11.14
2018-11-02T09:14:47.885Z,11.17
2018-11-02T09:17:16.581Z,11.20
2018-11-02T09:19:45.205Z,11.16
2018-11-02T09:22:14.117Z,11.18
2018-11-02T09:24:42.749Z,11.29
2018-11-02T09:27:11.400Z,11.38
2018-11-02T09:29:40.053Z,11.51
2018-11-02T09:32:08.705Z,11.46
2018-11-02T09:34:37.360Z,11.61
2018-11-02T09:37:05.989Z,11.79
2018-11-02T09:39:34.606Z,11.84
2018-11-02T09:42:03.250Z,11.85
2018-11-02T09:44:31.969Z,11.76
2018-11-02T09:47:00.609Z,11.78
2018-11-02T09:49:29.252Z,11.99
2018-11-02T09:51:57.950Z,11.99
2018-11-02T09:54:26.485Z,11.94
2018-11-02T09:56:55.148Z,11.91
2018-11-02T09:59:23.828Z,11.92
2018-11-02T10:01:52.542Z,12.06
2018-11-02T10:04:21.204Z,12.22
2018-11-02T10:06:49.852Z,12.34
2018-11-02T10:09:18.540Z,12.60
2018-11-02T10:11:47.440Z,12.61
2018-11-02T10:14:16.212Z,12.67
2018-11-02T10:16:44.956Z,12.59
2018-11-02T10:19:14.034Z,12.72
2018-11-02T10:21:42.670Z,12.78
2018-11-02T10:24:11.431Z,12.87
2018-11-02T10:26:40.126Z,12.81
2018-11-02T10:29:08.824Z,12.66
2018-11-02T10:31:37.451Z,12.49
2018-11-02T10:34:06.084Z,12.49
2018-11-02T10:36:35.369Z,12.36
2018-11-02T10:39:05.144Z,12.46
2018-11-02T10:41:50.816Z,12.61
2018-11-02T10:44:25.971Z,12.55
2018-11-02T10:46:54.504Z,12.59
2018-11-02T10:49:23.258Z,12.41
2018-11-02T10:51:51.792Z,12.45
2018-11-02T10:54:20.533Z,12.36
2018-11-02T10:56:49.250Z,12.41
2018-11-02T10:59:17.910Z,12.35
2018-11-02T11:01:51.383Z,12.21
2018-11-02T11:04:20.476Z,12.20
2018-11-02T11:06:49.189Z,12.13
2018-11-02T11:09:17.835Z,12.18
2018-11-02T11:11:46.635Z,12.14
2018-11-02T11:14:15.141Z,12.27
2018-11-02T11:16:43.908Z,12.10
2018-11-02T11:19:12.575Z,12.16
2018-11-02T11:21:42.150Z,12.12
2018-11-02T11:24:10.792Z,12.06
2018-11-02T11:26:39.671Z,12.08
2018-11-02T11:29:08.505Z,12.12
2018-11-02T11:31:37.409Z,12.00
2018-11-02T11:34:06.876Z,12.23
2018-11-02T11:36:35.502Z,12.18
2018-11-02T11:39:07.500Z,12.23
2018-11-02T11:41:36.151Z,12.29
2018-11-02T11:44:04.801Z,12.25
2018-11-02T11:46:33.849Z,12.26
2018-11-02T11:49:02.717Z,12.18
2018-11-02T11:51:31.153Z,12.36
2018-11-02T11:53:59.784Z,12.42
2018-11-02T11:56:28.450Z,12.52
2018-11-02T11:58:57.127Z,12.30
2018-11-02T12:01:25.778Z,12.23
2018-11-02T12:03:54.395Z,12.48
2018-11-02T12:06:23.037Z,12.61
2018-11-02T12:08:51.668Z,12.82
2018-11-02T12:11:20.331Z,12.97
2018-11-02T12:13:48.969Z,12.85
2018-11-02T12:16:17.659Z,12.90
2018-11-02T12:18:46.412Z,12.73
2018-11-02T12:21:15.115Z,12.86
2018-11-02T12:23:43.739Z,12.92
2018-11-02T12:26:12.425Z,13.04
2018-11-02T12:28:41.194Z,12.96
2018-11-02T12:31:09.755Z,12.92
2018-11-02T12:33:38.376Z,12.93
2018-11-02T12:36:07.048Z,12.82
2018-11-02T12:38:35.712Z,12.88
2018-11-02T12:41:04.360Z,12.95
2018-11-02T12:43:33.062Z,13.18
2018-11-02T12:46:01.664Z,13.35
2018-11-02T12:48:30.403Z,13.07
2018-11-02T12:50:59.004Z,13.00
2018-11-02T12:53:27.667Z,12.89
2018-11-02T12:55:56.279Z,12.80
2018-11-02T12:58:24.897Z,12.94
2018-11-02T13:00:53.880Z,13.02
2018-11-02T13:03:22.509Z,12.91
2018-11-02T13:05:51.166Z,12.94
2018-11-02T13:08:19.844Z,13.06
2018-11-02T13:10:48.485Z,13.04
2018-11-02T13:13:17.192Z,12.87
2018-11-02T13:15:45.865Z,12.89
2018-11-02T13:18:16.182Z,12.94
2018-11-02T13:20:44.677Z,12.89
2018-11-02T13:23:13.305Z,12.89
2018-11-02T13:25:42.169Z,12.79
2018-11-02T13:28:10.780Z,12.71
2018-11-02T13:30:39.474Z,12.76
2018-11-02T13:33:08.068Z,12.76
2018-11-02T13:35:36.741Z,12.77
2018-11-02T13:38:05.367Z,12.81
2018-11-02T13:40:33.972Z,12.79
2018-11-02T13:43:02.747Z,12.75
2018-11-02T13:45:31.369Z,12.70
2018-11-02T13:48:00.038Z,12.77
2018-11-02T13:50:28.737Z,12.61
2018-11-02T13:52:57.636Z,12.70
2018-11-02T13:55:26.279Z,12.58
2018-11-02T13:57:54.980Z,12.66
2018-11-02T14:00:25.736Z,12.71
2018-11-02T14:02:54.568Z,12.74
2018-11-02T14:05:23.220Z,12.72
2018-11-02T14:07:51.903Z,12.58
2018-11-02T14:10:20.547Z,12.66
2018-11-02T14:12:49.168Z,12.65
2018-11-02T14:15:18.119Z,12.71
2018-11-02T14:17:46.798Z,12.60
2018-11-02T14:20:15.759Z,12.53
2018-11-02T14:22:44.393Z,12.55
2018-11-02T14:25:14.301Z,12.50
2018-11-02T14:27:43.105Z,12.51
2018-11-02T14:30:13.338Z,12.50
2018-11-02T14:32:42.002Z,12.56
2018-11-02T14:35:10.650Z,12.69
2018-11-02T14:37:39.460Z,12.74
2018-11-02T14:40:08.859Z,12.69
2018-11-02T14:42:38.177Z,12.59
2018-11-02T14:45:08.491Z,12.62
2018-11-02T14:47:37.216Z,12.53
2018-11-02T14:50:07.200Z,12.47
2018-11-02T14:52:35.876Z,12.43
2018-11-02T14:55:04.790Z,12.53
2018-11-02T14:57:33.854Z,12.33
2018-11-02T15:00:02.571Z,12.36
2018-11-02T15:02:31.344Z,12.42
2018-11-02T15:04:59.989Z,12.49
2018-11-02T15:07:29.640Z,12.40
2018-11-02T15:09:58.316Z,12.35
2018-11-02T15:12:27.009Z,12.45
2018-11-02T15:14:55.742Z,12.26
2018-11-02T15:17:24.357Z,12.16
2018-11-02T15:19:53.067Z,12.26
2018-11-02T15:22:21.703Z,12.14
2018-11-02T15:24:50.318Z,12.08
2018-11-02T15:27:18.986Z,12.01
2018-11-02T15:29:47.643Z,11.89
2018-11-02T15:32:16.341Z,11.87
2018-11-02T15:34:45.021Z,11.91
2018-11-02T15:37:13.659Z,11.83
2018-11-02T15:39:42.299Z,11.81
2018-11-02T15:42:11.025Z,11.84
2018-11-02T15:44:39.750Z,11.83
2018-11-02T15:47:08.357Z,11.74
2018-11-02T15:49:38.135Z,11.72
2018-11-02T15:52:06.908Z,11.81
2018-11-02T15:54:35.623Z,11.78
2018-11-02T15:57:04.807Z,11.79
2018-11-02T15:59:33.449Z,11.73
2018-11-02T16:02:02.097Z,11.73
2018-11-02T16:04:30.873Z,11.61
2018-11-02T16:06:59.557Z,11.57
2018-11-02T16:09:28.182Z,11.52
2018-11-02T16:11:56.864Z,11.44
2018-11-02T16:14:25.726Z,11.31
2018-11-02T16:16:54.369Z,11.19
2018-11-02T16:19:23.048Z,11.10
2018-11-02T16:21:51.718Z,11.03
2018-11-02T16:24:20.429Z,11.05
2018-11-02T16:26:49.081Z,10.93
2018-11-02T16:29:17.811Z,10.81
2018-11-02T16:31:46.472Z,10.90
2018-11-02T16:34:15.151Z,10.85
2018-11-02T16:36:43.816Z,10.95
2018-11-02T16:39:13.025Z,10.94
2018-11-02T16:41:41.907Z,10.83
2018-11-02T16:44:10.746Z,10.85
2018-11-02T16:46:39.478Z,10.89
2018-11-02T16:49:08.153Z,10.80
2018-11-02T16:51:36.797Z,10.83
2018-11-02T16:54:05.666Z,10.85
2018-11-02T16:56:34.446Z,10.79
2018-11-02T16:59:03.075Z,10.83
2018-11-02T17:01:31.715Z,10.93
2018-11-02T17:04:00.485Z,10.87
2018-11-02T17:06:29.150Z,10.97
2018-11-02T17:08:57.837Z,11.01
2018-11-02T17:11:26.686Z,10.96
2018-11-02T17:13:55.390Z,10.99
2018-11-02T17:16:24.022Z,11.00
2018-11-02T17:18:52.746Z,11.08
2018-11-02T17:21:21.372Z,10.98
2018-11-02T17:23:49.980Z,10.85
2018-11-02T17:26:18.649Z,10.75
2018-11-02T17:28:47.289Z,10.74
2018-11-02T17:31:16.645Z,10.74
2018-11-02T17:33:46.113Z,10.70
2018-11-02T17:36:14.775Z,10.69
2018-11-02T17:38:43.420Z,10.71
2018-11-02T17:41:12.198Z,10.67
2018-11-02T17:43:40.969Z,10.63
2018-11-02T17:46:12.345Z,10.52
2018-11-02T17:48:41.400Z,10.44
2018-11-02T17:51:10.081Z,10.53
2018-11-02T17:53:38.680Z,10.46
2018-11-02T17:56:07.321Z,10.41
2018-11-02T17:58:35.936Z,10.42
2018-11-02T18:01:04.686Z,10.51
2018-11-02T18:03:33.776Z,10.39
2018-11-02T18:06:02.465Z,10.25
2018-11-02T18:08:31.063Z,10.01
2018-11-02T18:11:00.139Z,9.91
2018-11-02T18:13:28.751Z,9.74
2018-11-02T18:15:57.330Z,9.68
2018-11-02T18:18:25.996Z,9.68
2018-11-02T18:20:54.645Z,9.67
2018-11-02T18:23:23.283Z,9.75
2018-11-02T18:25:51.999Z,9.66
2018-11-02T18:28:20.625Z,9.66
2018-11-02T18:30:49.277Z,9.65
2018-11-02T18:33:17.930Z,9.63
2018-11-02T18:35:46.577Z,9.60
2018-11-02T18:38:15.212Z,9.40
2018-11-02T18:40:43.852Z,9.30
2018-11-02T18:43:12.701Z,9.18
2018-11-02T18:45:41.332Z,9.11
2018-11-02T18:48:10.959Z,9.36
2018-11-02T18:50:40.766Z,9.36
2018-11-02T18:53:09.426Z,9.14
2018-11-02T18:55:38.064Z,8.92
2018-11-02T18:58:06.823Z,8.93
2018-11-02T19:00:35.352Z,9.05
2018-11-02T19:03:04.040Z,9.22
2018-11-02T19:05:32.708Z,9.11
2018-11-02T19:08:01.416Z,9.18
2018-11-02T19:10:29.998Z,9.29
2018-11-02T19:12:58.596Z,9.08
2018-11-02T19:15:27.232Z,8.96
2018-11-02T19:17:55.854Z,9.06
2018-11-02T19:20:24.556Z,9.04
2018-11-02T19:22:53.131Z,9.15
2018-11-02T19:25:21.824Z,9.06
2018-11-02T19:27:50.503Z,9.02
2018-11-02T19:30:19.062Z,8.87
2018-11-02T19:32:47.685Z,8.78
2018-11-02T19:35:16.513Z,8.66
2018-11-02T19:37:45.053Z,8.63
2018-11-02T19:40:14.924Z,8.56
2018-11-02T19:42:43.876Z,8.64
2018-11-02T19:45:13.004Z,8.71
2018-11-02T19:47:46.965Z,8.65
2018-11-02T19:50:17.082Z,8.70
2018-11-02T19:52:45.825Z,8.63
2018-11-02T19:55:14.666Z,8.45
2018-11-02T19:57:44.428Z,8.44
2018-11-02T20:00:14.430Z,8.50
2018-11-02T20:02:43.373Z,8.33
2018-11-02T20:05:14.294Z,8.34
2018-11-02T20:07:43.156Z,8.48
2018-11-02T20:10:12.960Z,8.52
2018-11-02T20:12:42.264Z,8.48
2018-11-02T20:15:11.973Z,8.52
2018-11-02T20:17:41.262Z,8.47
2018-11-02T20:20:11.439Z,8.29
2018-11-02T20:22:40.359Z,8.31
2018-11-02T20:25:10.951Z,8.29
2018-11-02T20:27:39.913Z,8.29
2018-11-02T20:30:10.671Z,8.29
2018-11-02T20:32:39.519Z,8.12
2018-11-02T20:35:08.824Z,8.20
2018-11-02T20:37:38.533Z,8.28
2018-11-02T20:40:09.261Z,8.28
2018-11-02T20:42:38.004Z,8.28
2018-11-02T20:45:06.984Z,8.29
2018-11-02T20:47:41.233Z,8.32
2018-11-02T20:50:10.938Z,8.21
2018-11-02T20:52:40.181Z,8.27
2018-11-02T20:55:10.012Z,8.21
2018-11-02T20:57:39.389Z,8.18
2018-11-02T21:00:10.393Z,8.18
2018-11-02T21:02:39.375Z,8.20
2018-11-02T21:05:09.911Z,8.24
2018-11-02T21:07:38.672Z,8.37
2018-11-02T21:10:09.015Z,8.30
2018-11-02T21:12:37.722Z,8.30
2018-11-02T21:15:09.490Z,8.26
2018-11-02T21:17:37.997Z,8.18
2018-11-02T21:20:09.003Z,8.17
2018-11-02T21:22:37.737Z,8.15
2018-11-02T21:25:07.237Z,8.28
2018-11-02T21:27:36.044Z,8.09
2018-11-02T21:30:07.292Z,8.07
2018-11-02T21:32:36.412Z,8.01
2018-11-02T21:35:05.492Z,7.89
2018-11-02T21:37:34.235Z,7.87
2018-11-02T21:40:02.865Z,7.91
2018-11-02T21:42:31.492Z,7.73
2018-11-02T21:45:00.116Z,7.75
2018-11-02T21:47:28.706Z,7.73
2018-11-02T21:49:57.433Z,7.76
2018-11-02T21:52:26.143Z,7.64
2018-11-02T21:54:54.903Z,7.72
2018-11-02T21:57:23.521Z,7.70
2018-11-02T21:59:52.459Z,7.84
2018-11-02T22:02:21.084Z,7.69
2018-11-02T22:04:49.692Z,7.76
2018-11-02T22:07:18.827Z,7.72
2018-11-02T22:09:47.607Z,7.48
2018-11-02T22:12:16.243Z,7.42
2018-11-02T22:14:44.863Z,7.42
2018-11-02T22:17:13.464Z,7.35
2018-11-02T22:19:42.170Z,7.23
2018-11-02T22:22:10.848Z,7.24
2018-11-02T22:24:39.472Z,7.18
2018-11-02T22:27:08.148Z,7.24
2018-11-02T22:29:36.743Z,7.17
2018-11-02T22:32:05.428Z,7.15
2018-11-02T22:34:34.977Z,7.08
2018-11-02T22:37:03.590Z,7.10
2018-11-02T22:39:32.212Z,7.05
2018-11-02T22:42:00.784Z,7.17
2018-11-02T22:44:29.380Z,7.22
2018-11-02T22:46:58.297Z,7.04
2018-11-02T22:49:26.932Z,7.02
2018-11-02T22:51:55.700Z,7.10
2018-11-02T22:54:24.504Z,7.18
2018-11-02T22:56:53.112Z,7.14
2018-11-02T22:59:21.751Z,7.20
2018-11-02T23:01:50.387Z,7.17
2018-11-02T23:04:19.064Z,7.10
2018-11-02T23:06:47.665Z,7.08
2018-11-02T23:09:16.293Z,7.14
2018-11-02T23:11:44.896Z,7.19
2018-11-02T23:14:13.545Z,7.16
2018-11-02T23:16:42.129Z,7.17
2018-11-02T23:19:10.826Z,7.31
2018-11-02T23:21:39.393Z,7.34
2018-11-02T23:24:08.005Z,7.33
2018-11-02T23:26:37.953Z,7.41
2018-11-02T23:29:07.256Z,7.46
2018-11-02T23:31:36.119Z,7.46
2018-11-02T23:34:05.055Z,7.40
2018-11-02T23:36:33.701Z,7.44
2018-11-02T23:39:02.316Z,7.59
2018-11-02T23:41:30.948Z,7.60
2018-11-02T23:43:59.633Z,7.55
2018-11-02T23:46:28.227Z,7.61
2018-11-02T23:48:56.875Z,7.47
2018-11-02T23:51:25.598Z,7.46
2018-11-02T23:53:54.177Z,7.45
2018-11-02T23:56:22.805Z,7.55
2018-11-02T23:58:51.468Z,7.46
